FDX5225 EDDK-KMEM
Flight info
| Callsign | FDX5225 |
|---|---|
| Flight time | N/A |
| Altitude | 24000 |
| Route | WIPUR1F WIPUR P64 SONEB/N0482F300 P64 TENLI L602 SUPUR P1 GODOS DCT NATEB DCT TLA DCT IBROD DCT SUNOT/M082F300 DCT 57N020W 57N030W 56N040W 54N050W DCT NEEKO/N0482F300 N624C ANATI/N0482F340 DCT VIDGO DCT PEVNI DCT YXU DCT WOOST DCT MIE DCT PXV BLUZZ5 |
| Aircraft | B77L/H-SDE1E2E3FGHIJ2J3J4J5M1RWXY/LB1D1 |
Departure
| Time | 2026-04-22 20:37 |
|---|---|
| Airport | Cologne Bonn Airport (EDDK) |
Arrival
| Time | N/A |
|---|---|
| Airport | Memphis International Airport (KMEM) |
| Time | Latitude | Longitude | Altitude | Speed | Heading |
|---|---|---|---|---|---|
| 2026-04-22 19:32 | 50.87633 | 7.12700 | 254 ft | 0 kts | 227° |
| 2026-04-22 20:15 | 50.87633 | 7.12699 | 253 ft | 0 kts | 227° |
| 2026-04-22 20:17 | 50.87633 | 7.12700 | 253 ft | 0 kts | 227° |
| 2026-04-22 20:18 | 50.87637 | 7.12705 | 253 ft | 0 kts | 227° |
| 2026-04-22 20:18 | 50.87641 | 7.12713 | 253 ft | 1 kts | 227° |
| 2026-04-22 20:18 | 50.87648 | 7.12724 | 253 ft | 1 kts | 227° |
| 2026-04-22 20:18 | 50.87651 | 7.12730 | 254 ft | 0 kts | 228° |
| 2026-04-22 20:19 | 50.87655 | 7.12737 | 254 ft | 1 kts | 228° |
| 2026-04-22 20:19 | 50.87662 | 7.12750 | 254 ft | 1 kts | 228° |
| 2026-04-22 20:19 | 50.87671 | 7.12765 | 254 ft | 2 kts | 229° |
| 2026-04-22 20:19 | 50.87677 | 7.12784 | 254 ft | 1 kts | 254° |
| 2026-04-22 20:20 | 50.87679 | 7.12799 | 254 ft | 0 kts | 266° |
| 2026-04-22 20:20 | 50.87680 | 7.12801 | 254 ft | 0 kts | 270° |
| 2026-04-22 20:20 | 50.87680 | 7.12806 | 254 ft | 0 kts | 278° |
| 2026-04-22 20:20 | 50.87679 | 7.12807 | 254 ft | 0 kts | 282° |
| 2026-04-22 20:27 | 50.87680 | 7.12806 | 254 ft | 0 kts | 283° |
| 2026-04-22 20:28 | 50.87680 | 7.12803 | 254 ft | 0 kts | 287° |
| 2026-04-22 20:28 | 50.87683 | 7.12794 | 254 ft | 1 kts | 298° |
| 2026-04-22 20:28 | 50.87689 | 7.12782 | 254 ft | 1 kts | 317° |
| 2026-04-22 20:28 | 50.87698 | 7.12771 | 254 ft | 1 kts | 323° |
| 2026-04-22 20:29 | 50.87707 | 7.12761 | 254 ft | 1 kts | 324° |
| 2026-04-22 20:29 | 50.87719 | 7.12748 | 254 ft | 2 kts | 326° |
| 2026-04-22 20:29 | 50.87735 | 7.12731 | 254 ft | 2 kts | 326° |
| 2026-04-22 20:29 | 50.87750 | 7.12714 | 254 ft | 3 kts | 325° |
| 2026-04-22 20:30 | 50.87768 | 7.12694 | 254 ft | 3 kts | 323° |
| 2026-04-22 20:30 | 50.87787 | 7.12669 | 254 ft | 4 kts | 321° |
| 2026-04-22 20:30 | 50.87809 | 7.12646 | 254 ft | 4 kts | 330° |
| 2026-04-22 20:30 | 50.87831 | 7.12630 | 253 ft | 3 kts | 339° |
| 2026-04-22 20:31 | 50.87837 | 7.12626 | 253 ft | 0 kts | 340° |
| 2026-04-22 20:31 | 50.87838 | 7.12626 | 253 ft | 0 kts | 340° |
| 2026-04-22 20:31 | 50.87844 | 7.12622 | 253 ft | 2 kts | 342° |
| 2026-04-22 20:31 | 50.87866 | 7.12616 | 253 ft | 4 kts | 356° |
| 2026-04-22 20:32 | 50.87902 | 7.12623 | 253 ft | 7 kts | 15° |
| 2026-04-22 20:32 | 50.87944 | 7.12658 | 252 ft | 7 kts | 37° |
| 2026-04-22 20:32 | 50.87969 | 7.12699 | 251 ft | 2 kts | 51° |
| 2026-04-22 20:32 | 50.87972 | 7.12705 | 251 ft | 0 kts | 53° |
| 2026-04-22 20:34 | 50.87973 | 7.12707 | 251 ft | 0 kts | 53° |
| 2026-04-22 20:34 | 50.87978 | 7.12719 | 251 ft | 2 kts | 56° |
| 2026-04-22 20:34 | 50.87988 | 7.12745 | 251 ft | 3 kts | 63° |
| 2026-04-22 20:35 | 50.87998 | 7.12787 | 251 ft | 4 kts | 74° |
| 2026-04-22 20:35 | 50.88003 | 7.12836 | 250 ft | 5 kts | 86° |
| 2026-04-22 20:35 | 50.88000 | 7.12904 | 249 ft | 8 kts | 101° |
| 2026-04-22 20:35 | 50.87982 | 7.12978 | 248 ft | 8 kts | 119° |
| 2026-04-22 20:36 | 50.87958 | 7.13030 | 248 ft | 4 kts | 131° |
| 2026-04-22 20:36 | 50.87943 | 7.13056 | 248 ft | 3 kts | 133° |
| 2026-04-22 20:36 | 50.87870 | 7.13168 | 250 ft | 41 kts | 137° |
| 2026-04-22 20:36 | 50.87552 | 7.13631 | 251 ft | 102 kts | 135° |
| 2026-04-22 20:37 | 50.85191 | 7.17063 | 989 ft | 209 kts | 135° |
| 2026-04-22 20:37 | 50.84398 | 7.18173 | 1911 ft | 193 kts | 135° |
| 2026-04-22 20:38 | 50.82026 | 7.21434 | 2736 ft | 218 kts | 133° |
| 2026-04-22 20:38 | 50.81313 | 7.22940 | 3114 ft | 222 kts | 109° |
| 2026-04-22 20:39 | 50.81094 | 7.27647 | 4331 ft | 225 kts | 93° |
| 2026-04-22 20:39 | 50.80962 | 7.29826 | 4855 ft | 229 kts | 95° |
| 2026-04-22 20:40 | 50.81748 | 7.34162 | 5004 ft | 228 kts | 43° |
| 2026-04-22 20:40 | 50.83086 | 7.35354 | 5008 ft | 229 kts | 16° |
| 2026-04-22 20:41 | 50.88071 | 7.35368 | 5252 ft | 260 kts | 347° |
| 2026-04-22 20:41 | 50.89721 | 7.34649 | 5912 ft | 263 kts | 347° |
| 2026-04-22 20:41 | 50.92884 | 7.33256 | 7217 ft | 266 kts | 347° |
| 2026-04-22 20:42 | 50.94555 | 7.32523 | 7864 ft | 268 kts | 347° |